Time;durP1;ratioP1;P1;durP2;ratioP2;P2;SDS_P1;SDS_P2;PMS_P1;PMS_P2;Temp;Humidity;BMP_temperature;BMP_pressure;BME280_temperature;BME280_humidity;BME280_pressure;Samples;Min_cycle;Max_cycle;Signal;HPM_P1;HPM_P2
2023/12/01 00:03:40;;;;;;;52.50;23.65;;;1.00;99.90;;;;;;7348178;32;20258;-56
2023/12/01 00:07:42;;;;;;;60.47;25.17;;;1.00;99.90;;;;;;7347362;32;20281;-56
2023/12/01 00:11:44;;;;;;;53.13;23.95;;;1.00;99.90;;;;;;7346406;32;20506;-56
2023/12/01 00:15:45;;;;;;;55.72;25.12;;;1.00;99.90;;;;;;7346879;32;20131;-56
2023/12/01 00:19:47;;;;;;;52.95;23.58;;;1.10;99.90;;;;;;7348021;32;20126;-56
2023/12/01 00:23:49;;;;;;;57.42;26.30;;;1.00;99.90;;;;;;7345801;32;20354;-57
2023/12/01 00:27:50;;;;;;;58.58;25.42;;;1.10;99.90;;;;;;7347611;32;20213;-56
2023/12/01 00:31:52;;;;;;;52.95;23.90;;;1.10;99.90;;;;;;7348566;32;20127;-57
2023/12/01 00:35:54;;;;;;;52.28;23.25;;;1.10;99.90;;;;;;7350712;32;20576;-56
2023/12/01 00:39:56;;;;;;;51.42;24.25;;;1.20;99.90;;;;;;7343936;32;20569;-56
2023/12/01 00:43:57;;;;;;;51.35;23.62;;;1.10;99.90;;;;;;7349170;32;20115;-57
2023/12/01 00:47:59;;;;;;;51.45;23.23;;;1.00;99.90;;;;;;7349649;32;20519;-57
2023/12/01 00:52:01;;;;;;;50.70;22.75;;;1.10;99.90;;;;;;7351894;32;20226;-57
2023/12/01 00:56:03;;;;;;;45.83;23.12;;;1.20;99.90;;;;;;7353171;32;20246;-57
2023/12/01 01:00:06;;;;;;;47.60;22.02;;;1.30;99.90;;;;;;7348500;32;20151;-57
2023/12/01 01:04:08;;;;;;;57.00;24.73;;;1.40;99.90;;;;;;7354265;32;20290;-57
2023/12/01 01:08:13;;;;;;;51.72;23.52;;;1.40;99.90;;;;;;7353013;32;20457;-57
2023/12/01 01:12:15;;;;;;;47.75;24.10;;;1.30;99.90;;;;;;7352390;32;20263;-57
2023/12/01 01:16:16;;;;;;;47.92;23.30;;;1.40;99.90;;;;;;7349753;32;20226;-57
2023/12/01 01:20:18;;;;;;;50.72;24.20;;;1.40;99.90;;;;;;7343728;32;20115;-56
2023/12/01 01:24:20;;;;;;;52.10;24.50;;;1.40;99.90;;;;;;7350619;32;20734;-57
2023/12/01 01:28:22;;;;;;;52.53;24.08;;;1.30;99.90;;;;;;7349784;32;20506;-57
2023/12/01 01:32:24;;;;;;;51.08;24.48;;;1.20;99.90;;;;;;7347208;32;20219;-57
2023/12/01 01:36:25;;;;;;;49.20;24.42;;;1.10;99.90;;;;;;7347456;32;20126;-56
2023/12/01 01:40:27;;;;;;;49.00;24.17;;;1.20;99.90;;;;;;7345639;32;20191;-58
2023/12/01 01:44:29;;;;;;;49.60;23.38;;;1.30;99.90;;;;;;7347294;32;20137;-56
2023/12/01 01:48:34;;;;;;;47.83;24.00;;;1.40;99.90;;;;;;7342654;32;20230;-58
2023/12/01 01:52:38;;;;;;;54.90;24.52;;;1.30;99.90;;;;;;7345151;32;20462;-57
2023/12/01 01:56:40;;;;;;;54.08;24.23;;;1.40;99.90;;;;;;7345259;32;20167;-57
2023/12/01 02:00:49;;;;;;;48.55;24.63;;;1.40;99.90;;;;;;7349748;32;20524;-57
2023/12/01 02:04:53;;;;;;;51.35;25.88;;;1.40;99.90;;;;;;7344863;32;20202;-57
2023/12/01 02:08:56;;;;;;;59.55;24.95;;;1.20;99.90;;;;;;7344422;32;20159;-57
2023/12/01 02:12:57;;;;;;;54.10;25.48;;;1.20;99.90;;;;;;7347769;32;20168;-57
2023/12/01 02:17:01;;;;;;;53.83;26.15;;;1.30;99.90;;;;;;7339817;32;20223;-56
2023/12/01 02:21:03;;;;;;;50.78;23.55;;;1.30;99.90;;;;;;7353346;32;20127;-57
2023/12/01 02:25:05;;;;;;;46.28;24.00;;;1.30;99.90;;;;;;7345165;32;20122;-57
2023/12/01 02:29:07;;;;;;;49.95;23.83;;;1.30;99.90;;;;;;7344397;32;20575;-57
2023/12/01 02:33:15;;;;;;;46.65;24.87;;;1.30;99.90;;;;;;7343144;32;20104;-57
2023/12/01 02:37:17;;;;;;;;;;;1.30;99.90;;;;;;7347830;32;20111;-57
2023/12/01 02:41:18;;;;;;;47.15;24.48;;;1.30;99.90;;;;;;7343762;32;20116;-56
2023/12/01 02:45:21;;;;;;;50.67;24.08;;;1.30;99.90;;;;;;7346844;32;20564;-57
2023/12/01 02:49:24;;;;;;;46.35;22.60;;;1.30;99.90;;;;;;7346236;32;20465;-57
2023/12/01 02:53:26;;;;;;;50.92;23.60;;;1.20;99.90;;;;;;7344478;32;20525;-55
2023/12/01 02:57:27;;;;;;;45.28;23.35;;;1.20;99.90;;;;;;7345095;32;20234;-58
2023/12/01 03:01:29;;;;;;;45.92;23.55;;;1.30;99.90;;;;;;7343831;32;20213;-57
2023/12/01 03:05:31;;;;;;;45.35;22.98;;;1.20;99.90;;;;;;7347135;32;20107;-57
2023/12/01 03:09:33;;;;;;;49.10;24.67;;;1.30;99.90;;;;;;7351048;32;20155;-57
2023/12/01 03:13:34;;;;;;;45.70;23.45;;;0.90;99.90;;;;;;7346447;32;20329;-57
2023/12/01 03:17:37;;;;;;;46.20;23.58;;;1.00;99.90;;;;;;7341975;32;20129;-56
2023/12/01 03:21:39;;;;;;;48.15;24.27;;;1.00;99.90;;;;;;7347115;32;20130;-57
2023/12/01 03:25:41;;;;;;;53.83;26.02;;;1.00;99.90;;;;;;7350112;32;20115;-56
2023/12/01 03:29:43;;;;;;;56.92;26.00;;;0.90;99.90;;;;;;7343451;32;20229;-56
2023/12/01 03:33:44;;;;;;;57.70;27.10;;;0.80;99.90;;;;;;7344979;32;20287;-57
2023/12/01 03:37:47;;;;;;;53.58;25.77;;;0.80;99.90;;;;;;7342690;32;20123;-56
2023/12/01 03:41:49;;;;;;;54.72;25.85;;;0.80;99.90;;;;;;7349495;32;20115;-57
2023/12/01 03:45:50;;;;;;;52.67;24.25;;;0.70;99.90;;;;;;7341021;32;20222;-56
2023/12/01 03:49:52;;;;;;;57.83;24.73;;;0.80;99.90;;;;;;7346732;32;20119;-57
2023/12/01 03:53:54;;;;;;;52.95;24.98;;;0.80;99.90;;;;;;7350977;32;20160;-55
2023/12/01 03:57:56;;;;;;;52.80;23.15;;;0.90;99.90;;;;;;7346864;32;20337;-56
2023/12/01 04:01:57;;;;;;;49.22;22.13;;;0.80;99.90;;;;;;7351771;32;20167;-56
2023/12/01 04:06:01;;;;;;;47.30;21.23;;;0.70;99.90;;;;;;7350606;32;20129;-56
2023/12/01 04:10:10;;;;;;;44.42;20.77;;;0.80;99.90;;;;;;7353864;32;20382;-57
2023/12/01 04:14:12;;;;;;;42.62;19.60;;;0.70;99.90;;;;;;7347263;32;20122;-56
2023/12/01 04:18:13;;;;;;;47.38;20.42;;;0.70;99.90;;;;;;7346790;32;20130;-56
2023/12/01 04:22:15;;;;;;;35.75;17.95;;;0.80;99.90;;;;;;7340952;32;20228;-57
2023/12/01 04:26:17;;;;;;;39.72;17.83;;;0.90;99.90;;;;;;7354981;32;20221;-57
2023/12/01 04:30:20;;;;;;;38.03;17.10;;;0.80;99.90;;;;;;7349483;32;20842;-56
2023/12/01 04:34:22;;;;;;;34.85;17.12;;;0.90;99.90;;;;;;7351191;32;20496;-56
2023/12/01 04:38:24;;;;;;;36.15;17.65;;;0.90;99.90;;;;;;7347428;32;20107;-56
2023/12/01 04:42:25;;;;;;;34.28;16.77;;;0.90;99.90;;;;;;7354103;32;20579;-56
2023/12/01 04:46:27;;;;;;;34.35;18.08;;;0.90;99.90;;;;;;7347124;32;20318;-56
2023/12/01 04:50:30;;;;;;;37.25;17.55;;;1.10;99.90;;;;;;7348479;32;20581;-56
2023/12/01 04:54:32;;;;;;;34.90;17.37;;;1.10;99.90;;;;;;7348747;32;20178;-58
2023/12/01 04:58:34;;;;;;;32.55;15.65;;;1.10;99.90;;;;;;7348785;32;20107;-56
2023/12/01 05:02:35;;;;;;;29.60;15.32;;;1.00;99.90;;;;;;7345470;32;20291;-56
2023/12/01 05:06:37;;;;;;;34.00;16.25;;;1.00;99.90;;;;;;7345197;32;20151;-57
2023/12/01 05:10:44;;;;;;;33.13;15.32;;;1.10;99.90;;;;;;7351803;32;20107;-56
2023/12/01 05:14:46;;;;;;;;;;;1.00;99.90;;;;;;7350187;32;20248;-56
2023/12/01 05:18:48;;;;;;;27.25;14.10;;;1.00;99.90;;;;;;7349889;32;20146;-56
2023/12/01 05:22:57;;;;;;;30.62;15.30;;;1.00;99.90;;;;;;7349547;32;20107;-56
2023/12/01 05:27:07;;;;;;;33.13;15.38;;;1.10;99.90;;;;;;7345466;32;20112;-56
2023/12/01 05:31:10;;;;;;;32.67;15.90;;;1.00;99.90;;;;;;7347845;32;20259;-56
2023/12/01 05:35:13;;;;;;;31.87;15.98;;;1.10;99.90;;;;;;7350042;32;20152;-56
2023/12/01 05:39:16;;;;;;;31.62;16.27;;;1.10;99.90;;;;;;7346890;32;20768;-57
2023/12/01 05:43:17;;;;;;;30.17;14.77;;;1.30;99.90;;;;;;7348036;32;20160;-56
2023/12/01 05:47:19;;;;;;;27.75;13.62;;;1.20;99.90;;;;;;7343789;32;20185;-56
2023/12/01 05:51:21;;;;;;;29.73;15.80;;;1.20;99.90;;;;;;7347806;32;20195;-56
2023/12/01 05:55:27;;;;;;;29.10;13.68;;;1.20;99.90;;;;;;7347470;32;20130;-56
2023/12/01 05:59:29;;;;;;;24.90;14.48;;;1.10;99.90;;;;;;7347536;32;20133;-56
2023/12/01 06:03:31;;;;;;;30.30;15.32;;;1.20;99.90;;;;;;7345405;32;20127;-56
2023/12/01 06:07:33;;;;;;;26.67;14.00;;;1.20;99.90;;;;;;7350873;32;20107;-57
2023/12/01 06:11:35;;;;;;;28.45;15.80;;;1.10;99.90;;;;;;7348258;32;20106;-56
2023/12/01 06:15:37;;;;;;;29.55;15.45;;;1.10;99.90;;;;;;7347442;32;20160;-56
2023/12/01 06:19:39;;;;;;;29.10;16.50;;;1.10;99.90;;;;;;7348481;32;20124;-56
2023/12/01 06:23:40;;;;;;;28.75;15.52;;;1.20;99.90;;;;;;7344036;32;20163;-56
2023/12/01 06:27:43;;;;;;;27.10;14.85;;;1.10;99.90;;;;;;7347313;32;20103;-56
2023/12/01 06:31:44;;;;;;;25.73;14.63;;;1.20;99.90;;;;;;7343661;32;20134;-57
2023/12/01 06:35:46;;;;;;;27.70;15.65;;;1.20;99.90;;;;;;7349914;32;20576;-56
2023/12/01 06:39:48;;;;;;;23.62;13.18;;;1.00;99.90;;;;;;7341553;32;20201;-57
2023/12/01 06:43:50;;;;;;;22.75;12.20;;;1.00;99.90;;;;;;7339049;32;20103;-55
2023/12/01 06:47:53;;;;;;;20.37;11.52;;;0.70;99.90;;;;;;7341095;32;20233;-55
2023/12/01 06:51:54;;;;;;;23.33;12.60;;;0.60;99.90;;;;;;7338192;32;20111;-58
2023/12/01 06:55:56;;;;;;;22.95;12.07;;;0.60;99.90;;;;;;7336066;32;20239;-58
2023/12/01 06:59:58;;;;;;;20.65;11.48;;;0.50;99.90;;;;;;7344270;32;20576;-58
2023/12/01 07:04:07;;;;;;;18.27;10.45;;;0.50;99.90;;;;;;7349690;32;20131;-59
2023/12/01 07:08:12;;;;;;;18.20;9.73;;;0.40;99.90;;;;;;7347243;32;20134;-58
2023/12/01 07:12:15;;;;;;;25.08;12.57;;;0.50;99.90;;;;;;7343184;32;20193;-58
2023/12/01 07:16:19;;;;;;;16.60;7.95;;;0.60;99.90;;;;;;7346082;32;20840;-59
2023/12/01 07:20:21;;;;;;;14.13;7.15;;;0.40;99.90;;;;;;7344896;32;20166;-57
2023/12/01 07:24:23;;;;;;;17.80;9.35;;;0.40;99.90;;;;;;7345330;32;20133;-57
2023/12/01 07:28:25;;;;;;;17.48;9.32;;;0.50;99.90;;;;;;7345671;32;21034;-57
2023/12/01 07:32:26;;;;;;;19.33;9.50;;;0.60;99.90;;;;;;7348928;32;20409;-57
2023/12/01 07:36:29;;;;;;;20.25;9.60;;;0.40;99.90;;;;;;7350987;32;20121;-57
2023/12/01 07:40:41;;;;;;;20.35;10.15;;;0.40;99.90;;;;;;7347132;32;20129;-57
2023/12/01 07:44:43;;;;;;;19.98;10.75;;;0.30;99.90;;;;;;7344163;32;20176;-57
2023/12/01 07:48:44;;;;;;;24.83;11.73;;;0.30;99.90;;;;;;7351263;32;20231;-56
2023/12/01 07:52:48;;;;;;;24.30;12.10;;;0.30;99.90;;;;;;7348306;32;20376;-56
2023/12/01 07:56:50;;;;;;;23.02;11.90;;;0.30;99.90;;;;;;7346319;32;20099;-55
2023/12/01 08:00:52;;;;;;;25.27;11.73;;;0.30;99.90;;;;;;7347173;32;20203;-56
2023/12/01 08:04:54;;;;;;;26.12;11.18;;;0.40;99.90;;;;;;7344126;32;20688;-57
2023/12/01 08:08:56;;;;;;;23.83;11.38;;;0.20;99.90;;;;;;7346057;32;20103;-56
2023/12/01 08:12:58;;;;;;;24.67;10.82;;;0.20;99.90;;;;;;7347974;32;20104;-57
2023/12/01 08:17:01;;;;;;;20.37;9.55;;;0.10;99.90;;;;;;7348172;32;20122;-57
2023/12/01 08:21:03;;;;;;;17.60;8.57;;;0.10;99.90;;;;;;7349062;32;20129;-57
2023/12/01 08:25:07;;;;;;;17.52;8.63;;;0.10;99.90;;;;;;7346090;32;20114;-57
2023/12/01 08:29:08;;;;;;;17.15;7.40;;;0.00;99.90;;;;;;7350629;32;20135;-57
2023/12/01 08:33:10;;;;;;;15.27;7.72;;;-0.10;99.90;;;;;;7342115;32;20867;-57
2023/12/01 08:37:12;;;;;;;14.32;7.30;;;0.00;99.90;;;;;;7349344;32;20129;-56
2023/12/01 08:41:22;;;;;;;13.70;7.30;;;-0.10;99.90;;;;;;7347007;32;20130;-58
2023/12/01 08:45:24;;;;;;;12.20;6.55;;;0.00;99.90;;;;;;7347142;32;20242;-57
2023/12/01 08:49:26;;;;;;;12.52;5.95;;;0.10;99.90;;;;;;7347705;32;20198;-57
2023/12/01 08:53:28;;;;;;;13.57;7.35;;;0.10;99.90;;;;;;7338832;32;20103;-56
2023/12/01 08:57:30;;;;;;;14.77;6.90;;;-0.10;99.90;;;;;;7346511;32;20137;-57
2023/12/01 09:01:31;;;;;;;12.55;6.55;;;-0.10;99.90;;;;;;7342743;32;20123;-57
2023/12/01 09:05:33;;;;;;;11.65;6.00;;;0.00;99.90;;;;;;7346832;32;20111;-57
2023/12/01 09:09:35;;;;;;;15.38;7.60;;;-0.10;99.90;;;;;;7343588;32;20115;-57
2023/12/01 09:13:40;;;;;;;12.90;7.45;;;0.00;99.90;;;;;;7338317;32;21022;-57
2023/12/01 09:17:42;;;;;;;15.95;8.13;;;0.00;99.90;;;;;;7345185;32;20171;-57
2023/12/01 09:21:45;;;;;;;15.13;6.93;;;-0.10;99.90;;;;;;7345358;32;20134;-57
2023/12/01 09:25:47;;;;;;;14.65;7.25;;;-0.10;99.90;;;;;;7346089;32;20436;-57
2023/12/01 09:29:48;;;;;;;15.25;7.45;;;-0.20;99.90;;;;;;7346569;32;20196;-57
2023/12/01 09:33:50;;;;;;;13.50;7.28;;;-0.10;99.90;;;;;;7346204;32;20107;-57
2023/12/01 09:37:52;;;;;;;18.65;8.30;;;-0.10;99.90;;;;;;7339818;32;20747;-57
2023/12/01 09:41:55;;;;;;;18.35;8.40;;;0.10;99.90;;;;;;7345235;32;20497;-57
2023/12/01 09:45:58;;;;;;;15.10;7.90;;;0.10;99.90;;;;;;7335552;32;20197;-57
2023/12/01 09:50:01;;;;;;;18.85;9.40;;;0.20;99.90;;;;;;7346559;32;20145;-56
2023/12/01 09:54:03;;;;;;;18.75;9.80;;;0.10;99.90;;;;;;7348606;32;20169;-56
2023/12/01 09:58:06;;;;;;;20.65;10.25;;;0.10;99.90;;;;;;7340263;32;20133;-56
2023/12/01 10:02:07;;;;;;;20.88;9.68;;;0.20;99.90;;;;;;7345047;32;20579;-57
2023/12/01 10:06:10;;;;;;;19.70;9.70;;;0.20;99.90;;;;;;7347780;32;20200;-57
2023/12/01 10:10:21;;;;;;;26.40;11.52;;;0.30;99.90;;;;;;7351985;32;20111;-57
2023/12/01 10:14:23;;;;;;;22.90;10.80;;;0.40;99.90;;;;;;7350292;32;20165;-57
2023/12/01 10:18:25;;;;;;;26.30;11.73;;;0.40;99.90;;;;;;7343491;32;20168;-56
2023/12/01 10:22:29;;;;;;;24.05;11.57;;;0.40;99.90;;;;;;7346585;32;20228;-57
2023/12/01 10:26:31;;;;;;;22.25;10.23;;;0.40;99.90;;;;;;7345592;32;20130;-57
2023/12/01 10:30:33;;;;;;;28.60;11.38;;;0.30;99.90;;;;;;7340958;32;20107;-57
2023/12/01 10:34:37;;;;;;;24.73;11.55;;;0.50;99.90;;;;;;7347201;32;20688;-57
2023/12/01 10:38:38;;;;;;;25.30;12.32;;;0.40;99.90;;;;;;7345484;32;20608;-57
2023/12/01 10:42:45;;;;;;;25.55;12.75;;;0.40;99.90;;;;;;7342071;32;20133;-57
2023/12/01 10:46:48;;;;;;;27.92;12.50;;;0.30;99.90;;;;;;7348028;32;20317;-57
2023/12/01 10:50:50;;;;;;;24.67;12.60;;;0.20;99.90;;;;;;7346994;32;20249;-57
2023/12/01 10:54:52;;;;;;;27.92;12.43;;;0.40;99.90;;;;;;7349513;32;20131;-56
2023/12/01 10:58:57;;;;;;;29.12;13.20;;;0.50;99.90;;;;;;7349343;32;20207;-56
2023/12/01 11:03:03;;;;;;;34.40;15.73;;;0.50;99.90;;;;;;7348552;32;20718;-54
2023/12/01 11:07:24;;;;;;;31.83;14.68;;;0.50;99.90;;;;;;7354236;32;20252;-56
2023/12/01 11:11:44;;;;;;;31.87;14.32;;;0.40;99.90;;;;;;7349250;32;20120;-57
2023/12/01 11:15:49;;;;;;;28.45;14.27;;;0.30;99.90;;;;;;7352810;32;20115;-56
2023/12/01 11:19:51;;;;;;;33.90;15.20;;;0.20;99.90;;;;;;7354321;32;20158;-56
2023/12/01 11:23:54;;;;;;;32.30;14.82;;;0.20;99.90;;;;;;7350689;32;20127;-56
2023/12/01 11:27:56;;;;;;;35.17;15.70;;;0.20;99.90;;;;;;7355415;32;20103;-57
2023/12/01 11:31:58;;;;;;;29.52;14.90;;;0.30;99.90;;;;;;7349246;32;20164;-57
2023/12/01 11:36:18;;;;;;;29.65;14.60;;;0.20;99.90;;;;;;7348228;32;20107;-56
2023/12/01 11:40:22;;;;;;;30.77;15.40;;;0.20;99.90;;;;;;7346020;32;20702;-56
2023/12/01 11:44:24;;;;;;;33.10;15.52;;;0.30;99.90;;;;;;7349184;32;20142;-56
2023/12/01 11:48:26;;;;;;;33.03;17.05;;;0.40;99.90;;;;;;7350132;32;20194;-57
2023/12/01 11:52:28;;;;;;;31.20;15.00;;;0.40;99.90;;;;;;7346893;32;20218;-57
2023/12/01 11:56:31;;;;;;;35.72;17.23;;;0.40;99.90;;;;;;7352523;32;20131;-57
2023/12/01 12:00:34;;;;;;;39.92;18.52;;;0.50;99.90;;;;;;7348816;32;20103;-59
2023/12/01 12:04:39;;;;;;;38.85;17.50;;;0.60;99.90;;;;;;7346800;32;20115;-58
2023/12/01 12:08:42;;;;;;;34.15;16.95;;;0.60;99.90;;;;;;7342822;32;20133;-59
2023/12/01 12:12:48;;;;;;;35.72;16.05;;;0.80;99.90;;;;;;7350615;32;20159;-58
2023/12/01 12:16:51;;;;;;;30.27;15.93;;;0.80;99.90;;;;;;7346072;32;20529;-61
2023/12/01 12:20:53;;;;;;;31.70;15.88;;;0.60;99.90;;;;;;7347654;32;20091;-59
2023/12/01 12:24:55;;;;;;;32.50;16.90;;;0.60;99.90;;;;;;7348909;32;20136;-57
2023/12/01 12:29:02;;;;;;;31.95;16.42;;;0.40;99.90;;;;;;7348282;32;20265;-57
2023/12/01 12:33:04;;;;;;;35.08;15.75;;;0.40;99.90;;;;;;7345613;32;20107;-58
2023/12/01 12:37:10;;;;;;;44.55;21.50;;;0.50;99.90;;;;;;7346695;32;20198;-59
2023/12/01 12:41:24;;;;;;;32.55;16.85;;;0.60;99.90;;;;;;7347553;32;20258;-58
2023/12/01 12:45:27;;;;;;;28.92;15.20;;;0.60;99.90;;;;;;7349587;32;20138;-60
2023/12/01 12:49:32;;;;;;;34.05;15.05;;;0.60;99.90;;;;;;7343867;32;20202;-57
2023/12/01 12:53:34;;;;;;;33.45;15.43;;;0.50;99.90;;;;;;7340292;32;20138;-58
2023/12/01 12:57:36;;;;;;;29.60;14.55;;;0.50;99.90;;;;;;7351242;32;20135;-57
2023/12/01 13:01:38;;;;;;;31.37;14.15;;;0.60;99.90;;;;;;7349980;32;20191;-58
2023/12/01 13:05:40;;;;;;;29.10;14.87;;;0.60;99.90;;;;;;7348885;32;20111;-58
2023/12/01 13:09:42;;;;;;;30.52;15.25;;;0.60;99.90;;;;;;7346661;32;20130;-58
2023/12/01 13:13:44;;;;;;;27.13;14.82;;;0.70;99.90;;;;;;7349890;32;20111;-59
2023/12/01 13:17:46;;;;;;;32.17;14.70;;;0.70;99.90;;;;;;7350561;32;20254;-58
2023/12/01 13:21:48;;;;;;;30.85;16.50;;;0.70;99.90;;;;;;7344033;32;20344;-58
2023/12/01 13:25:53;;;;;;;28.65;15.05;;;0.80;99.90;;;;;;7345325;32;20168;-58
2023/12/01 13:29:55;;;;;;;26.17;15.02;;;0.60;99.90;;;;;;7350830;32;20132;-57
2023/12/01 13:33:57;;;;;;;28.23;15.18;;;0.60;99.90;;;;;;7341101;32;20130;-58
2023/12/01 13:38:01;;;;;;;29.02;15.00;;;0.60;99.90;;;;;;7343891;32;20301;-58
2023/12/01 13:42:03;;;;;;;28.08;14.10;;;0.40;99.90;;;;;;7350040;32;20579;-57
2023/12/01 13:46:05;;;;;;;27.98;14.27;;;0.40;99.90;;;;;;7345641;32;20276;-58
2023/12/01 13:50:07;;;;;;;26.33;14.38;;;0.50;99.90;;;;;;7345458;32;20112;-58
2023/12/01 13:54:10;;;;;;;30.75;14.60;;;0.50;99.90;;;;;;7350314;32;20236;-57
2023/12/01 13:58:12;;;;;;;30.92;15.32;;;0.60;99.90;;;;;;7346964;32;20110;-57
2023/12/01 14:02:18;;;;;;;32.95;15.00;;;0.60;99.90;;;;;;7345189;32;20220;-56
2023/12/01 14:06:20;;;;;;;28.35;14.20;;;0.60;99.90;;;;;;7346654;32;20128;-58
2023/12/01 14:10:22;;;;;;;29.02;15.93;;;0.50;99.90;;;;;;7350087;32;20165;-58
2023/12/01 14:14:24;;;;;;;29.60;14.40;;;0.30;99.90;;;;;;7349309;32;20125;-58
2023/12/01 14:18:25;;;;;;;27.02;13.93;;;0.30;99.90;;;;;;7348385;32;20517;-58
2023/12/01 14:22:27;;;;;;;32.10;15.93;;;0.40;99.90;;;;;;7346296;32;20133;-57
2023/12/01 14:26:29;;;;;;;31.45;15.48;;;0.30;99.90;;;;;;7349119;32;20593;-57
2023/12/01 14:30:31;;;;;;;28.23;14.27;;;0.50;99.90;;;;;;7349811;32;20495;-57
2023/12/01 14:34:33;;;;;;;32.58;15.30;;;0.40;99.90;;;;;;7348256;32;20108;-58
2023/12/01 14:38:35;;;;;;;24.37;13.40;;;0.50;99.90;;;;;;7344775;32;20142;-58
2023/12/01 14:42:37;;;;;;;26.40;13.55;;;0.40;99.90;;;;;;7347510;32;20147;-58
2023/12/01 14:46:39;;;;;;;31.48;14.60;;;0.40;99.90;;;;;;7350677;32;20316;-58
2023/12/01 14:50:41;;;;;;;26.02;14.15;;;0.50;99.90;;;;;;7347037;32;20718;-57
2023/12/01 14:54:43;;;;;;;27.13;13.35;;;0.50;99.90;;;;;;7350066;32;20111;-58
2023/12/01 14:58:44;;;;;;;29.37;14.52;;;0.40;99.90;;;;;;7341100;32;20126;-58
2023/12/01 15:02:47;;;;;;;29.67;14.18;;;0.20;99.90;;;;;;7341335;32;20229;-58
2023/12/01 15:06:49;;;;;;;25.37;13.80;;;0.20;99.90;;;;;;7346656;32;20217;-58
2023/12/01 15:10:50;;;;;;;31.45;15.10;;;0.30;99.90;;;;;;7341366;32;20199;-58
2023/12/01 15:14:52;;;;;;;27.52;13.93;;;0.30;99.90;;;;;;7348015;32;20107;-59
2023/12/01 15:18:54;;;;;;;28.52;13.68;;;0.30;99.90;;;;;;7347147;32;20131;-58
2023/12/01 15:22:56;;;;;;;26.98;13.15;;;0.20;99.90;;;;;;7341480;32;20119;-58
2023/12/01 15:26:58;;;;;;;30.12;13.82;;;0.10;99.90;;;;;;7341402;32;20261;-58
2023/12/01 15:31:00;;;;;;;25.15;13.73;;;0.10;99.90;;;;;;7344428;32;20198;-57
2023/12/01 15:35:02;;;;;;;26.73;13.13;;;0.00;99.90;;;;;;7344900;32;20230;-58
2023/12/01 15:39:03;;;;;;;31.30;15.40;;;0.10;99.90;;;;;;7338862;32;20216;-57
2023/12/01 15:43:05;;;;;;;25.05;13.55;;;0.10;99.90;;;;;;7344781;32;20322;-57
2023/12/01 15:47:07;;;;;;;40.60;26.73;;;0.20;99.90;;;;;;7345459;32;20267;-57
2023/12/01 15:51:09;;;;;;;28.05;14.60;;;0.10;99.90;;;;;;7344428;32;20241;-57
2023/12/01 15:55:11;;;;;;;28.02;14.52;;;0.00;99.90;;;;;;7350782;32;20138;-56
2023/12/01 15:59:13;;;;;;;40.55;21.67;;;0.00;99.90;;;;;;7350946;32;20134;-56
2023/12/01 16:03:14;;;;;;;33.88;19.40;;;-0.20;99.90;;;;;;7346890;32;20130;-57
2023/12/01 16:07:16;;;;;;;211.57;97.53;;;-0.10;99.90;;;;;;7345211;32;20152;-57
2023/12/01 16:11:18;;;;;;;67.97;40.33;;;-0.10;99.90;;;;;;7347388;32;20938;-55
2023/12/01 16:15:21;;;;;;;50.75;25.62;;;0.00;99.90;;;;;;7346243;32;20779;-56
2023/12/01 16:19:23;;;;;;;39.40;20.45;;;0.00;99.90;;;;;;7345980;32;20115;-56
2023/12/01 16:23:25;;;;;;;32.40;16.70;;;0.10;99.90;;;;;;7349429;32;20572;-57
2023/12/01 16:27:27;;;;;;;47.50;27.90;;;0.00;99.90;;;;;;7349930;32;20107;-57
2023/12/01 16:31:29;;;;;;;53.38;26.17;;;0.00;99.90;;;;;;7350334;32;20107;-56
2023/12/01 16:35:31;;;;;;;34.10;16.10;;;0.00;99.90;;;;;;7351499;32;20106;-56
2023/12/01 16:39:32;;;;;;;31.98;16.60;;;0.00;99.90;;;;;;7349465;32;20127;-58
2023/12/01 16:43:35;;;;;;;28.67;15.85;;;-0.10;99.90;;;;;;7343800;32;20126;-56
2023/12/01 16:47:36;;;;;;;25.73;13.35;;;-0.30;99.90;;;;;;7341233;32;20171;-56
2023/12/01 16:51:38;;;;;;;113.07;61.65;;;-0.40;99.90;;;;;;7350813;32;20667;-56
2023/12/01 16:55:40;;;;;;;28.42;17.17;;;-0.40;99.90;;;;;;7350051;32;20310;-57
2023/12/01 16:59:43;;;;;;;51.92;26.62;;;-0.40;99.90;;;;;;7343669;32;20279;-56
2023/12/01 17:03:45;;;;;;;29.58;15.85;;;-0.30;99.90;;;;;;7343761;32;20100;-58
2023/12/01 17:07:47;;;;;;;33.80;17.15;;;-0.40;99.90;;;;;;7345464;32;20107;-56
2023/12/01 17:11:48;;;;;;;48.83;21.83;;;-0.30;99.90;;;;;;7343029;32;20170;-57
2023/12/01 17:15:50;;;;;;;35.80;19.67;;;-0.20;99.90;;;;;;7349955;32;20194;-58
2023/12/01 17:19:52;;;;;;;30.62;17.15;;;-0.30;99.90;;;;;;7348091;32;20170;-56
2023/12/01 17:23:53;;;;;;;37.90;19.95;;;-0.20;99.90;;;;;;7347876;32;20111;-57
2023/12/01 17:27:55;;;;;;;79.70;37.65;;;-0.30;99.90;;;;;;7349798;32;20115;-59
2023/12/01 17:32:00;;;;;;;76.85;38.92;;;-0.30;99.90;;;;;;7343418;32;20363;-57
2023/12/01 17:36:01;;;;;;;67.15;34.90;;;-0.30;99.90;;;;;;7341099;32;20159;-57
2023/12/01 17:40:04;;;;;;;69.20;34.67;;;-0.20;99.90;;;;;;7350604;32;20106;-57
2023/12/01 17:44:06;;;;;;;65.40;35.28;;;-0.20;99.90;;;;;;7345779;32;20182;-58
2023/12/01 17:48:07;;;;;;;82.97;42.42;;;-0.20;99.90;;;;;;7345996;32;20191;-57
2023/12/01 17:52:09;;;;;;;91.68;44.58;;;-0.10;99.90;;;;;;7348884;32;20116;-57
2023/12/01 17:56:11;;;;;;;49.75;26.37;;;-0.10;99.90;;;;;;7346840;32;20145;-56
2023/12/01 18:00:13;;;;;;;57.70;28.27;;;-0.30;99.90;;;;;;7338069;32;20621;-57
2023/12/01 18:04:15;;;;;;;30.30;16.90;;;-0.40;99.90;;;;;;7343759;32;20199;-55
2023/12/01 18:08:17;;;;;;;23.27;13.88;;;-0.60;99.90;;;;;;7346323;32;20554;-56
2023/12/01 18:12:19;;;;;;;30.20;16.10;;;-0.70;99.90;;;;;;7345935;32;20229;-56
2023/12/01 18:16:20;;;;;;;37.88;20.12;;;-0.80;99.90;;;;;;7341559;32;20782;-56
2023/12/01 18:20:24;;;;;;;36.60;18.85;;;-0.70;99.90;;;;;;7347947;32;20129;-56
2023/12/01 18:24:26;;;;;;;47.70;30.10;;;-0.70;99.90;;;;;;7347970;32;20159;-57
2023/12/01 18:28:28;;;;;;;38.38;20.67;;;-0.60;99.90;;;;;;7341975;32;20349;-56
2023/12/01 18:32:29;;;;;;;22.80;13.75;;;-0.60;99.90;;;;;;7345457;32;20126;-56
2023/12/01 18:36:31;;;;;;;83.20;40.50;;;-0.60;99.90;;;;;;7348249;32;20548;-57
2023/12/01 18:40:33;;;;;;;67.43;33.40;;;-0.50;99.90;;;;;;7345736;32;20107;-57
2023/12/01 18:44:35;;;;;;;121.95;56.25;;;-0.40;99.90;;;;;;7347815;32;20268;-57
2023/12/01 18:48:36;;;;;;;45.38;23.23;;;-0.40;99.90;;;;;;7345200;32;20983;-56
2023/12/01 18:52:39;;;;;;;27.77;15.50;;;-0.50;99.90;;;;;;7338027;32;20130;-55
2023/12/01 18:56:41;;;;;;;61.85;32.15;;;-0.50;99.90;;;;;;7341596;32;20345;-55
2023/12/01 19:00:43;;;;;;;59.50;31.48;;;-0.40;99.90;;;;;;7345910;32;20444;-56
2023/12/01 19:04:45;;;;;;;54.53;28.30;;;-0.40;99.90;;;;;;7345203;32;20107;-57
2023/12/01 19:08:46;;;;;;;152.98;70.03;;;-0.40;99.90;;;;;;7346509;32;20152;-56
2023/12/01 19:12:48;;;;;;;71.15;35.55;;;-0.40;99.90;;;;;;7341884;32;20108;-55
2023/12/01 19:16:50;;;;;;;31.67;18.98;;;-0.40;99.90;;;;;;7341755;32;20202;-57
2023/12/01 19:20:54;;;;;;;48.08;25.88;;;-0.50;99.90;;;;;;7345829;32;20111;-56
2023/12/01 19:24:56;;;;;;;39.53;20.55;;;-0.70;99.90;;;;;;7347984;32;20195;-55
2023/12/01 19:28:57;;;;;;;38.80;19.00;;;-0.60;99.90;;;;;;7348786;32;20162;-56
2023/12/01 19:32:59;;;;;;;26.52;14.85;;;-0.50;99.90;;;;;;7349107;32;20249;-56
2023/12/01 19:37:01;;;;;;;28.00;15.50;;;-0.70;99.90;;;;;;7350460;32;20328;-56
2023/12/01 19:41:03;;;;;;;44.25;21.45;;;-0.70;99.90;;;;;;7348541;32;20234;-58
2023/12/01 19:45:05;;;;;;;76.00;39.28;;;-0.60;99.90;;;;;;7350656;32;20596;-56
2023/12/01 19:49:07;;;;;;;112.03;52.78;;;-0.60;99.90;;;;;;7350097;32;20103;-57
2023/12/01 19:53:08;;;;;;;50.25;25.83;;;-0.50;99.90;;;;;;7346387;32;20133;-56
2023/12/01 19:57:10;;;;;;;71.53;34.45;;;-0.50;99.90;;;;;;7349552;32;20111;-56
2023/12/01 20:01:12;;;;;;;53.58;28.67;;;-0.50;99.90;;;;;;7343752;32;20341;-55
2023/12/01 20:05:14;;;;;;;93.25;48.40;;;-0.40;99.90;;;;;;7351576;32;20476;-56
2023/12/01 20:09:17;;;;;;;78.12;37.78;;;-0.40;99.90;;;;;;7347481;32;20430;-57
2023/12/01 20:13:19;;;;;;;77.05;42.55;;;-0.50;99.90;;;;;;7349595;32;20552;-56
2023/12/01 20:17:21;;;;;;;129.98;61.10;;;-0.70;99.90;;;;;;7347773;32;20841;-55
2023/12/01 20:21:23;;;;;;;66.90;34.13;;;-0.60;99.90;;;;;;7347412;32;20125;-56
2023/12/01 20:25:25;;;;;;;55.00;24.67;;;-0.70;99.90;;;;;;7350311;32;20552;-56
2023/12/01 20:29:26;;;;;;;129.48;51.28;;;-0.70;99.90;;;;;;7349732;32;20103;-56
2023/12/01 20:33:28;;;;;;;106.55;47.60;;;-0.70;99.90;;;;;;7346475;32;20142;-55
2023/12/01 20:37:30;;;;;;;19.62;12.82;;;-0.60;99.90;;;;;;7346003;32;20330;-56
2023/12/01 20:41:32;;;;;;;83.93;34.00;;;-0.60;99.90;;;;;;7349336;32;20699;-55
2023/12/01 20:45:34;;;;;;;21.48;13.20;;;-0.60;99.90;;;;;;7350751;32;20267;-56